Terminal Aerodrome Forecast
Issued by NWS

Home | Current Version | Previous Version | Text Only | Print | Product List | Glossary On
Versions: 1 2 3 4 5 6 7 8 9 10 11 12 13 14 15 16 17 18 19 20 21 22
000
FTUS43 KDVN 250520
TAFCID
TAF
KCID 250520Z 2506/2606 18006KT P6SM SCT050 PROB30 2515/2518 5SM
      TSRA BKN035CB
     FM251800 15010KT P6SM BKN040
      TEMPO 2518/2521 4SM TSRA BR OVC025CB
     FM252100 17012G20KT P6SM VCTS BKN040CB
     FM260100 18006KT 6SM BR BKN050=

USA.gov is the U.S. government's official web portal to all federal, state and local government web resources and services.